^^
Datos históricos de la estación: Murcia-Puente Tocinos
Diario Informe para Marzo 17, 2019 Unidades:  Métrico    Ingés   Ambas
Diario Semanal Mensual Anual
  Máxima: Mínima: Promedio:
Temperatura: 16.6 °C 10.6 °C 13.3 °C
Punto de rocio: 10.1 °C 7.1 °C 9.1 °C
Humedad: 88.9% 59.9% 77%
Velocidad viento: 10.3km/h 0km/h 5.9km/h
Racha viento: 23.3km/h - -
Viento- - SSO
Presión: 1012.6 hPa 999.5 hPa -
Precipitación: 0.0 mm    
 
 
Tabla de datos para Marzo 17, 2019
Hora Temperatura Punto de rocio Presión Viento Velocidad viento Racha viento Humedad Intensidad lluvia(por hora) Nubes
00:04 12.4 °C 10.1 °C 1000.9 hPa OSO 3 km/h 8 km/h 86% 0.0 mm
00:09 12.4 °C 10.1 °C 1000.9 hPa SSO 2.2 km/h 8 km/h 86% 0.0 mm
00:14 12.4 °C 10 °C 1000.9 hPa SSO 3 km/h 8 km/h 85.4% 0.0 mm
00:19 12.3 °C 9.8 °C 1000.9 hPa OSO 3.9 km/h 8.4 km/h 85% 0.0 mm
00:24 12.3 °C 9.7 °C 1000.9 hPa Oeste 4.2 km/h 10 km/h 84.1% 0.0 mm
00:29 12.3 °C 9.6 °C 1000.4 hPa OSO 4.7 km/h 9.7 km/h 83.9% 0.0 mm
00:34 12.2 °C 9.4 °C 1000.4 hPa OSO 4.8 km/h 9.7 km/h 83% 0.0 mm
00:39 12.2 °C 9.4 °C 1000.5 hPa OSO 5 km/h 9.3 km/h 83% 0.0 mm
00:44 12.2 °C 9.4 °C 1000.5 hPa SO 4.8 km/h 9.7 km/h 83% 0.0 mm
00:49 12.2 °C 9.4 °C 1000.5 hPa SO 4.7 km/h 9.3 km/h 83% 0.0 mm
00:54 12.1 °C 9.3 °C 1000.5 hPa SO 5.2 km/h 10 km/h 83% 0.0 mm
00:59 12.1 °C 9.3 °C 1000.2 hPa SO 5.8 km/h 11.9 km/h 83% 0.0 mm
01:04 12 °C 9.2 °C 1000.2 hPa OSO 6.1 km/h 11.3 km/h 83% 0.0 mm
01:09 12 °C 9.2 °C 1000.2 hPa SO 6.5 km/h 10 km/h 83% 0.0 mm
01:14 11.9 °C 9.2 °C 999.8 hPa SSO 6.5 km/h 13 km/h 83% 0.0 mm
01:17 11.9 °C 9.1 °C 999.8 hPa SSO 6.5 km/h 15.6 km/h 83% 0.0 mm
01:24 11.9 °C 9.1 °C 999.9 hPa SSO 9.5 km/h 13 km/h 83% 0.0 mm
01:29 12 °C 9.2 °C 999.9 hPa SSO 9.5 km/h 14.5 km/h 83% 0.0 mm
01:34 12.1 °C 9.3 °C 999.9 hPa SSO 8 km/h 13 km/h 83% 0.0 mm
01:39 12 °C 9.2 °C 999.9 hPa SSO 6.5 km/h 13 km/h 83% 0.0 mm
01:44 11.9 °C 9.1 °C 999.9 hPa SSO 7 km/h 12.9 km/h 83% 0.0 mm
01:49 11.8 °C 9 °C 999.9 hPa SSO 7.6 km/h 11.3 km/h 83% 0.0 mm
01:54 11.8 °C 9 °C 999.9 hPa SO 7.3 km/h 11.3 km/h 83% 0.0 mm
01:59 11.7 °C 9 °C 999.8 hPa SO 6.9 km/h 9.7 km/h 83.5% 0.0 mm
02:04 11.7 °C 9.1 °C 999.8 hPa SO 6.4 km/h 9.7 km/h 84% 0.0 mm
02:09 11.6 °C 9 °C 999.8 hPa SO 5.8 km/h 9.5 km/h 84% 0.0 mm
02:14 11.6 °C 9 °C 999.5 hPa SSO 5.8 km/h 9.7 km/h 84% 0.0 mm
02:19 11.6 °C 9 °C 999.5 hPa SSO 5.8 km/h 12.2 km/h 84% 0.0 mm
02:24 11.5 °C 8.9 °C 999.9 hPa SSO 6.1 km/h 13 km/h 84% 0.0 mm
02:29 11.4 °C 8.9 °C 999.9 hPa SSO 6.5 km/h 13.7 km/h 84.5% 0.0 mm
02:34 11.3 °C 8.9 °C 999.9 hPa SSO 7 km/h 14.5 km/h 85% 0.0 mm
02:39 11.3 °C 8.9 °C 1000.1 hPa SSO 7.6 km/h 11.3 km/h 85% 0.0 mm
02:44 11.2 °C 8.8 °C 1000.1 hPa SSO 7.3 km/h 13 km/h 85% 0.0 mm
02:49 11.2 °C 8.8 °C 1000.1 hPa SO 6.9 km/h 14.8 km/h 85% 0.0 mm
02:54 11.2 °C 8.8 °C 1000.3 hPa SO 7.2 km/h 16.1 km/h 85% 0.0 mm
02:59 11.3 °C 8.9 °C 1000.3 hPa SO 7.6 km/h 16.1 km/h 85% 0.0 mm
03:04 11.3 °C 8.9 °C 1000.3 hPa OSO 7.2 km/h 11.3 km/h 85% 0.0 mm
03:09 11.3 °C 8.9 °C 1000.3 hPa OSO 6.9 km/h 11.3 km/h 85% 0.0 mm
03:14 11.3 °C 8.9 °C 1000.1 hPa OSO 6.9 km/h 11.9 km/h 85% 0.0 mm
03:19 11.3 °C 8.9 °C 1000.1 hPa OSO 6.9 km/h 11.3 km/h 85% 0.0 mm
03:24 11.3 °C 8.9 °C 1000.4 hPa OSO 6.4 km/h 10 km/h 85% 0.0 mm
03:29 11.3 °C 8.9 °C 1000.4 hPa Oeste 5.8 km/h 11.1 km/h 85% 0.0 mm
03:34 11.3 °C 8.9 °C 1000.4 hPa Oeste 5.8 km/h 11.3 km/h 85% 0.0 mm
03:39 11.2 °C 8.8 °C 1000.4 hPa OSO 5.8 km/h 8.4 km/h 85% 0.0 mm
03:44 11.2 °C 8.8 °C 1000.2 hPa OSO 5.4 km/h 10.3 km/h 85% 0.0 mm
03:49 11.2 °C 8.8 °C 1000.2 hPa SO 5 km/h 11.3 km/h 85% 0.0 mm
03:54 11.1 °C 8.8 °C 1000.2 hPa SSO 4.8 km/h 11.3 km/h 85.7% 0.0 mm
03:59 11.2 °C 8.9 °C 1000.2 hPa SO 4.7 km/h 8 km/h 86% 0.0 mm
04:04 11.2 °C 8.8 °C 1000.2 hPa OSO 4.6 km/h 8 km/h 85% 0.0 mm
04:09 11.2 °C 8.8 °C 1000.2 hPa OSO 4.7 km/h 9.5 km/h 85% 0.0 mm
04:14 11.2 °C 8.8 °C 1000.2 hPa SSO 4.8 km/h 9.7 km/h 85% 0.0 mm
04:19 11.2 °C 8.8 °C 1000.2 hPa SSO 5 km/h 14.8 km/h 85% 0.0 mm
04:24 11.3 °C 8.9 °C 1000.2 hPa SO 6 km/h 14.5 km/h 85% 0.0 mm
04:29 11.4 °C 8.9 °C 1000.2 hPa SSO 6.9 km/h 14.8 km/h 85% 0.0 mm
04:34 11.4 °C 8.8 °C 1000.2 hPa SSO 6.9 km/h 14.5 km/h 84% 0.0 mm
04:39 11.4 °C 8.8 °C 1000.2 hPa SSO 6.9 km/h 9.7 km/h 84% 0.0 mm
04:44 11.4 °C 8.8 °C 1000.2 hPa SSO 6 km/h 9.7 km/h 84% 0.0 mm
04:49 11.4 °C 8.8 °C 1000.2 hPa Sur 5 km/h 8 km/h 84% 0.0 mm
04:54 11.4 °C 8.8 °C 1000.3 hPa SE 5 km/h 11.1 km/h 84% 0.0 mm
04:59 11.2 °C 8.7 °C 1000.3 hPa SE 5 km/h 11.3 km/h 84.1% 0.0 mm
05:04 11 °C 8.6 °C 1000.3 hPa SSE 5.8 km/h 9.7 km/h 85% 0.0 mm
05:09 10.8 °C 8.6 °C 1000.3 hPa Sur 6.5 km/h 10 km/h 86% 0.0 mm
05:14 10.8 °C 8.7 °C 1000.2 hPa SSO 6.1 km/h 9.7 km/h 86.8% 0.0 mm
05:19 10.7 °C 8.6 °C 1000.2 hPa SSO 5.8 km/h 8 km/h 87% 0.0 mm
05:24 10.7 °C 8.6 °C 1000.2 hPa Sur 4.9 km/h 8.4 km/h 87% 0.0 mm
05:29 10.7 °C 8.6 °C 1000.0 hPa SSE 3.9 km/h 8 km/h 87% 0.0 mm
05:34 10.7 °C 8.8 °C 1000.0 hPa SSE 4.3 km/h 8 km/h 88% 0.0 mm
05:39 10.7 °C 8.8 °C 1000.0 hPa SSO 4.6 km/h 8 km/h 88% 0.0 mm
05:44 10.7 °C 8.8 °C 999.9 hPa SO 4.2 km/h 8.4 km/h 88% 0.0 mm
05:49 10.8 °C 8.9 °C 999.9 hPa SO 3.9 km/h 8.4 km/h 88% 0.0 mm
05:54 10.9 °C 8.9 °C 1000.1 hPa Sur 4.4 km/h 8 km/h 87.3% 0.0 mm
05:59 11 °C 8.9 °C 1000.1 hPa SSE 5 km/h 8 km/h 87% 0.0 mm
06:04 11 °C 8.8 °C 1000.1 hPa SE 3.5 km/h 8 km/h 86.2% 0.0 mm
06:09 11 °C 8.7 °C 1000.1 hPa SE 2.2 km/h 7.4 km/h 86% 0.0 mm
06:14 10.9 °C 8.7 °C 1000.0 hPa SE 2.6 km/h 8 km/h 86% 0.0 mm
06:19 10.9 °C 8.8 °C 1000.0 hPa SE 2.9 km/h 5.6 km/h 86.9% 0.0 mm
06:24 10.9 °C 8.8 °C 1000.1 hPa SE 2.6 km/h 5.6 km/h 87% 0.0 mm
06:29 10.9 °C 8.8 °C 1000.1 hPa SE 2.2 km/h 3.9 km/h 87% 0.0 mm
06:34 10.9 °C 8.8 °C 1000.1 hPa SE 1.1 km/h 3.7 km/h 87% 0.0 mm
06:39 10.8 °C 8.7 °C 1000.2 hPa Calm   5.8 km/h 87% 0.0 mm
06:44 10.8 °C 8.8 °C 1000.2 hPa SE 1.5 km/h 7.4 km/h 87% 0.0 mm
06:49 10.8 °C 8.8 °C 1000.2 hPa SE 2.9 km/h 8 km/h 87% 0.0 mm
06:54 10.8 °C 8.7 °C 1000.5 hPa SE 3.4 km/h 8 km/h 87% 0.0 mm
06:59 10.7 °C 8.7 °C 1000.5 hPa ESE 3.9 km/h 9.5 km/h 87% 0.0 mm
07:04 10.7 °C 8.8 °C 1000.5 hPa SE 4.4 km/h 9.7 km/h 87.9% 0.0 mm
07:09 10.8 °C 8.9 °C 1000.7 hPa SE 5 km/h 9.7 km/h 88% 0.0 mm
07:14 10.8 °C 8.9 °C 1000.7 hPa SE 4.1 km/h 8 km/h 88% 0.0 mm
07:19 10.9 °C 9 °C 1000.7 hPa SO 3.2 km/h 8.4 km/h 87.9% 0.0 mm
07:24 10.8 °C 8.8 °C 1000.7 hPa Oeste 3.5 km/h 8 km/h 87% 0.0 mm
07:29 10.8 °C 8.8 °C 1000.7 hPa Oeste 3.9 km/h 8 km/h 87.5% 0.0 mm
07:34 10.8 °C 8.9 °C 1000.7 hPa Oeste 3.9 km/h 8 km/h 88% 0.0 mm
07:39 10.9 °C 8.9 °C 1000.9 hPa Oeste 3.9 km/h 8 km/h 87.3% 0.0 mm
07:44 10.9 °C 8.8 °C 1000.9 hPa Oeste 3.5 km/h 8 km/h 87% 0.0 mm
07:49 10.8 °C 8.8 °C 1000.9 hPa Oeste 3.2 km/h 6.4 km/h 87% 0.0 mm
07:54 10.8 °C 8.7 °C 1001.1 hPa Oeste 3.1 km/h 6.4 km/h 87% 0.0 mm
07:59 10.7 °C 8.6 °C 1001.1 hPa Oeste 2.9 km/h 8.4 km/h 87% 0.0 mm
08:04 10.7 °C 8.6 °C 1001.1 hPa Oeste 3.9 km/h 8 km/h 87% 0.0 mm
08:09 10.6 °C 8.7 °C 1001.5 hPa Oeste 4.6 km/h 7.6 km/h 88% 0.0 mm
08:14 10.6 °C 8.7 °C 1001.5 hPa OSO 3.9 km/h 8 km/h 88% 0.0 mm
08:19 10.7 °C 8.7 °C 1001.5 hPa SSO 3.2 km/h 8.4 km/h 88% 0.0 mm
08:24 10.7 °C 8.8 °C 1001.8 hPa SSO 4 km/h 8 km/h 88% 0.0 mm
08:29 10.8 °C 8.9 °C 1001.8 hPa OSO 4.7 km/h 8 km/h 88% 0.0 mm
08:34 10.8 °C 8.9 °C 1001.8 hPa OSO 4 km/h 6.4 km/h 88% 0.0 mm
08:39 10.8 °C 8.9 °C 1002.0 hPa SO 3.2 km/h 8.7 km/h 88% 0.0 mm
08:44 10.9 °C 9 °C 1002.0 hPa SSO 3.5 km/h 11.9 km/h 88% 0.0 mm
08:49 10.8 °C 8.9 °C 1002.0 hPa SSO 3.9 km/h 11.3 km/h 88% 0.0 mm
08:54 10.8 °C 8.9 °C 1002.1 hPa SSO 5.2 km/h 11.3 km/h 88% 0.0 mm
08:59 10.8 °C 8.9 °C 1002.1 hPa Sur 6.5 km/h 9.7 km/h 88% 0.0 mm
09:04 10.9 °C 9 °C 1002.1 hPa SSE 5.5 km/h 8.4 km/h 88% 0.0 mm
09:09 10.8 °C 9 °C 1002.3 hPa SE 4.7 km/h 9.3 km/h 88% 0.0 mm
09:14 10.8 °C 8.9 °C 1002.3 hPa ESE 4.8 km/h 9.7 km/h 88% 0.0 mm
09:19 10.8 °C 8.9 °C 1002.3 hPa ESE 5 km/h 8 km/h 88% 0.0 mm
09:24 10.8 °C 8.9 °C 1002.5 hPa SE 4.4 km/h 8.4 km/h 88% 0.0 mm
09:29 10.7 °C 8.8 °C 1002.5 hPa SSE 3.9 km/h 9.3 km/h 88% 0.0 mm
09:34 10.7 °C 8.9 °C 1002.5 hPa Sur 5.2 km/h 9.7 km/h 88.5% 0.0 mm
09:39 10.7 °C 9 °C 1002.9 hPa Sur 6.5 km/h 9.7 km/h 88.9% 0.0 mm
09:44 10.8 °C 8.9 °C 1002.9 hPa Sur 6.5 km/h 9.7 km/h 88% 0.0 mm
09:49 10.9 °C 9 °C 1002.9 hPa Sur 6.5 km/h 9.7 km/h 88% 0.0 mm
09:54 10.9 °C 9 °C 1003.1 hPa SSO 6.5 km/h 13 km/h 88% 0.0 mm
09:59 11 °C 8.9 °C 1003.1 hPa SSO 6.5 km/h 12.9 km/h 87% 0.0 mm
10:04 11.1 °C 9 °C 1003.1 hPa SSO 6.7 km/h 11.3 km/h 86.9% 0.0 mm
10:09 11.1 °C 8.8 °C 1003.4 hPa Sur 6.9 km/h 9.7 km/h 86% 0.0 mm
10:14 11.2 °C 8.9 °C 1003.4 hPa SSO 6.4 km/h 11.1 km/h 86% 0.0 mm
10:19 11.3 °C 9 °C 1003.4 hPa SSO 5.8 km/h 11.9 km/h 85.9% 0.0 mm
10:24 11.5 °C 9 °C 1003.7 hPa SO 6.7 km/h 13 km/h 84.3% 0.0 mm
10:29 11.7 °C 9 °C 1003.7 hPa SSO 7.6 km/h 12.9 km/h 83.9% 0.0 mm
10:34 11.8 °C 8.9 °C 1003.7 hPa SO 7 km/h 11.1 km/h 82.5% 0.0 mm
10:39 11.9 °C 8.8 °C 1003.8 hPa SO 6.5 km/h 11.3 km/h 81.5% 0.0 mm
10:44 12.1 °C 8.8 °C 1003.8 hPa SSO 6.1 km/h 11.3 km/h 80.8% 0.0 mm
10:49 12.2 °C 8.9 °C 1003.8 hPa SO 5.8 km/h 8 km/h 80% 0.0 mm
10:54 12.5 °C 9.1 °C 1003.9 hPa SO 4.4 km/h 5.6 km/h 79.7% 0.0 mm
10:59 12.8 °C 9 °C 1003.9 hPa SSO 3.2 km/h 9.3 km/h 77.7% 0.0 mm
11:04 12.9 °C 9 °C 1003.9 hPa SSO 4 km/h 10 km/h 77% 0.0 mm
11:09 13 °C 8.9 °C 1004.1 hPa SSO 4.7 km/h 9.7 km/h 76.2% 0.0 mm
11:14 13 °C 8.9 °C 1004.1 hPa SO 5.3 km/h 9.7 km/h 76.2% 0.0 mm
11:19 13.1 °C 8.9 °C 1004.1 hPa SSO 5.8 km/h 9.3 km/h 76% 0.0 mm
11:24 13.2 °C 9.1 °C 1004.2 hPa Sur 5.8 km/h 9.7 km/h 76% 0.0 mm
11:29 13.4 °C 9 °C 1004.2 hPa SSE 5.8 km/h 9.5 km/h 74.7% 0.0 mm
11:34 13.5 °C 9 °C 1004.2 hPa Sur 5.8 km/h 10.3 km/h 74.2% 0.0 mm
11:39 13.7 °C 9.2 °C 1004.3 hPa SSE 5.8 km/h 13 km/h 74% 0.0 mm
11:44 13.8 °C 9.2 °C 1004.3 hPa SSO 6.3 km/h 13 km/h 73.9% 0.0 mm
11:49 13.8 °C 9.1 °C 1004.3 hPa SSO 6.9 km/h 12.9 km/h 73.3% 0.0 mm
11:54 13.9 °C 9.1 °C 1004.4 hPa Sur 6.4 km/h 11.1 km/h 73% 0.0 mm
11:59 13.9 °C 9.2 °C 1004.4 hPa SSO 5.8 km/h 11.3 km/h 73% 0.0 mm
12:04 14 °C 9.2 °C 1004.4 hPa SSO 5.8 km/h 9.7 km/h 73% 0.0 mm
12:09 14.1 °C 9.3 °C 1004.4 hPa SSO 5.8 km/h 11.1 km/h 73% 0.0 mm
12:14 14.1 °C 9.1 °C 1004.3 hPa OSO 5.8 km/h 11.3 km/h 72% 0.0 mm
12:19 14.1 °C 9.1 °C 1004.3 hPa OSO 5.8 km/h 11.3 km/h 72% 0.0 mm
12:24 14.2 °C 9.2 °C 1004.3 hPa Sur 5.4 km/h 9.7 km/h 72% 0.0 mm
12:29 14.2 °C 9.2 °C 1004.3 hPa SSO 5 km/h 11.9 km/h 71.9% 0.0 mm
12:34 14.3 °C 9.3 °C 1004.3 hPa SSO 5.7 km/h 11.3 km/h 72% 0.0 mm
12:39 14.6 °C 9.4 °C 1004.3 hPa SSO 6.5 km/h 10.3 km/h 71.3% 0.0 mm
12:44 14.7 °C 9.3 °C 1004.3 hPa OSO 6.1 km/h 11.3 km/h 70.1% 0.0 mm
12:49 14.7 °C 9.3 °C 1004.3 hPa SO 5.8 km/h 11.3 km/h 70% 0.0 mm
12:54 14.8 °C 9.4 °C 1004.3 hPa SO 5.4 km/h 10 km/h 69.9% 0.0 mm
12:59 15 °C 9.4 °C 1004.3 hPa SSO 5 km/h 10 km/h 69% 0.0 mm
13:04 15.1 °C 9.5 °C 1004.3 hPa SO 5.8 km/h 11.9 km/h 69% 0.0 mm
13:09 15.2 °C 9.3 °C 1004.3 hPa SO 6.5 km/h 11.3 km/h 68% 0.0 mm
13:14 15.2 °C 9.4 °C 1004.2 hPa SO 6.5 km/h 11.3 km/h 68.1% 0.0 mm
13:19 15.3 °C 9.4 °C 1004.2 hPa Oeste 6.5 km/h 11.3 km/h 68% 0.0 mm
13:24 15.3 °C 9.4 °C 1004.2 hPa Oeste 6.1 km/h 13 km/h 67.5% 0.0 mm
13:29 15.5 °C 9.3 °C 1004.1 hPa OSO 5.8 km/h 16.7 km/h 66.8% 0.0 mm
13:34 15.6 °C 9.3 °C 1004.1 hPa Oeste 6.1 km/h 16.1 km/h 66% 0.0 mm
13:39 15.7 °C 9.3 °C 1004.1 hPa ONO 6.5 km/h 11.3 km/h 66% 0.0 mm
13:44 15.7 °C 9.3 °C 1004.0 hPa OSO 6.1 km/h 13 km/h 65.3% 0.0 mm
13:49 15.8 °C 9 °C 1004.0 hPa OSO 5.8 km/h 12.9 km/h 64% 0.0 mm
13:54 15.9 °C 9 °C 1004.0 hPa SO 6.3 km/h 11.9 km/h 63.6% 0.0 mm
13:59 16 °C 8.9 °C 1004.0 hPa SSO 6.9 km/h 11.3 km/h 63% 0.0 mm
14:04 16.2 °C 9.1 °C 1004.0 hPa SO 6.7 km/h 9.7 km/h 62.4% 0.0 mm
14:09 16.3 °C 9 °C 1004.0 hPa ONO 6.5 km/h 10.3 km/h 61.7% 0.0 mm
14:14 16.3 °C 9 °C 1004.0 hPa Oeste 5.8 km/h 11.3 km/h 62% 0.0 mm
14:19 16.3 °C 9 °C 1004.0 hPa OSO 5 km/h 11.3 km/h 62% 0.0 mm
14:24 16.3 °C 9 °C 1004.0 hPa OSO 5 km/h 9.7 km/h 62% 0.0 mm
14:29 16.3 °C 9 °C 1003.9 hPa SSO 5 km/h 10 km/h 62% 0.0 mm
14:34 16.3 °C 9 °C 1003.9 hPa SSO 5.7 km/h 10 km/h 62% 0.0 mm
14:39 16.2 °C 8.9 °C 1004.0 hPa SO 6.5 km/h 9.7 km/h 62% 0.0 mm
14:44 16.2 °C 9 °C 1004.0 hPa SSO 6.5 km/h 9.7 km/h 62.2% 0.0 mm
14:49 16.3 °C 9 °C 1004.0 hPa SSO 6.5 km/h 11.1 km/h 62% 0.0 mm
14:54 16.3 °C 9 °C 1004.1 hPa SSO 5.8 km/h 11.3 km/h 62% 0.0 mm
14:59 16.4 °C 9.1 °C 1004.1 hPa SSO 5 km/h 10 km/h 62% 0.0 mm
15:04 16.5 °C 9.2 °C 1004.1 hPa SSE 5.4 km/h 11.1 km/h 62% 0.0 mm
15:09 16.6 °C 9.3 °C 1004.3 hPa SE 5.8 km/h 13 km/h 62% 0.0 mm
15:14 16.6 °C 9.3 °C 1004.3 hPa Sur 6.4 km/h 13 km/h 62.1% 0.0 mm
15:19 16.6 °C 9.2 °C 1004.3 hPa Sur 6.9 km/h 14.8 km/h 62% 0.0 mm
15:24 16.4 °C 9.3 °C 1004.7 hPa Sur 8.2 km/h 14.8 km/h 62.9% 0.0 mm
15:29 16.4 °C 9.3 °C 1004.7 hPa SSO 9.5 km/h 14.5 km/h 63% 0.0 mm
15:34 16.4 °C 9.3 °C 1004.7 hPa SSO 9.1 km/h 14.8 km/h 63% 0.0 mm
15:39 16.4 °C 9.5 °C 1005.1 hPa Sur 8.7 km/h 14.5 km/h 63.6% 0.0 mm
15:44 16.4 °C 9.6 °C 1005.1 hPa Sur 8.2 km/h 12.9 km/h 64% 0.0 mm
15:49 16.3 °C 9.5 °C 1005.1 hPa SSO 7.6 km/h 11.3 km/h 64% 0.0 mm
15:54 16.3 °C 9.5 °C 1005.3 hPa Sur 7.6 km/h 11.3 km/h 64% 0.0 mm
15:59 16.2 °C 9.4 °C 1005.3 hPa SSO 7.6 km/h 9.7 km/h 64% 0.0 mm
16:04 16.2 °C 9.4 °C 1005.3 hPa SSO 6.6 km/h 9.7 km/h 64% 0.0 mm
16:09 16.2 °C 9.4 °C 1005.6 hPa SSO 5.8 km/h 10 km/h 64% 0.0 mm
16:14 16.2 °C 9.4 °C 1005.6 hPa SSO 5.8 km/h 9.7 km/h 64.2% 0.0 mm
16:19 16.2 °C 9.4 °C 1005.6 hPa SSO 5.8 km/h 10 km/h 64.2% 0.0 mm
16:24 16.2 °C 9.5 °C 1005.9 hPa Sur 6.1 km/h 10 km/h 64.6% 0.0 mm
16:29 16.2 °C 9.6 °C 1005.9 hPa SE 6.5 km/h 9.7 km/h 65% 0.0 mm
16:34 16.2 °C 9.6 °C 1005.9 hPa SSE 5.6 km/h 8 km/h 65% 0.0 mm
16:39 16.2 °C 9.6 °C 1006.1 hPa Sur 4.7 km/h 9.5 km/h 65.1% 0.0 mm
16:44 16.1 °C 9.7 °C 1006.1 hPa Sur 5.5 km/h 10 km/h 66% 0.0 mm
16:49 16 °C 9.7 °C 1006.1 hPa SSE 6.5 km/h 10 km/h 66.2% 0.0 mm
16:54 15.9 °C 9.6 °C 1006.2 hPa SSE 6.5 km/h 10 km/h 66.4% 0.0 mm
16:59 15.9 °C 9.8 °C 1006.2 hPa SE 6.5 km/h 9.7 km/h 66.9% 0.0 mm
17:04 15.8 °C 9.7 °C 1006.2 hPa SE 6.5 km/h 10 km/h 67% 0.0 mm
17:09 15.8 °C 9.9 °C 1006.3 hPa ESE 6.5 km/h 9.7 km/h 68% 0.0 mm
17:14 15.8 °C 9.9 °C 1006.3 hPa ESE 4.9 km/h 6.4 km/h 68% 0.0 mm
17:19 15.7 °C 9.9 °C 1006.3 hPa SSE 3.2 km/h 9.5 km/h 68% 0.0 mm
17:24 15.7 °C 10 °C 1006.6 hPa SSE 4.1 km/h 9.7 km/h 69% 0.0 mm
17:29 15.6 °C 9.9 °C 1006.6 hPa Sur 5 km/h 9.7 km/h 69% 0.0 mm
17:34 15.5 °C 9.8 °C 1006.6 hPa SSE 5.4 km/h 9.7 km/h 69% 0.0 mm
17:39 15.4 °C 9.9 °C 1006.9 hPa SSE 5.8 km/h 9.3 km/h 69.7% 0.0 mm
17:44 15.3 °C 9.9 °C 1006.9 hPa SSE 5.4 km/h 9.7 km/h 70% 0.0 mm
17:49 15.3 °C 9.9 °C 1006.9 hPa SSE 5 km/h 9.7 km/h 70.3% 0.0 mm
17:54 15.2 °C 10 °C 1007.1 hPa SSE 5.7 km/h 9.7 km/h 71% 0.0 mm
17:59 15.2 °C 10 °C 1007.1 hPa SE 6.5 km/h 9.7 km/h 71% 0.0 mm
18:04 15.2 °C 10.1 °C 1007.1 hPa ESE 6.5 km/h 9.7 km/h 71.3% 0.0 mm
18:09 15.1 °C 10.1 °C 1007.3 hPa ESE 6.5 km/h 9.7 km/h 72% 0.0 mm
18:14 15 °C 10 °C 1007.3 hPa ESE 5.1 km/h 8 km/h 72% 0.0 mm
18:19 14.8 °C 9.8 °C 1007.3 hPa SSE 3.9 km/h 8 km/h 72% 0.0 mm
18:24 14.7 °C 9.8 °C 1007.6 hPa SSE 3.9 km/h 8 km/h 72% 0.0 mm
18:29 14.7 °C 9.9 °C 1007.6 hPa SSO 3.9 km/h 7.4 km/h 73% 0.0 mm
18:34 14.7 °C 9.9 °C 1007.6 hPa Oeste 3.9 km/h 8 km/h 73% 0.0 mm
18:39 14.7 °C 10 °C 1007.9 hPa ONO 3.9 km/h 8 km/h 73.5% 0.0 mm
18:44 14.7 °C 10.1 °C 1007.9 hPa Oeste 3.9 km/h 8 km/h 74% 0.0 mm
18:49 14.7 °C 10.1 °C 1007.9 hPa Oeste 3.9 km/h 8 km/h 74% 0.0 mm
18:54 14.7 °C 10.1 °C 1008.2 hPa Oeste 3.4 km/h 4.8 km/h 74% 0.0 mm
18:59 14.7 °C 10.1 °C 1008.2 hPa Oeste 2.9 km/h 4.8 km/h 74% 0.0 mm
19:04 14.7 °C 10.1 °C 1008.2 hPa Oeste 2.9 km/h 7.6 km/h 73.9% 0.0 mm
19:09 14.7 °C 9.9 °C 1008.4 hPa OSO 2.9 km/h 8 km/h 73% 0.0 mm
19:14 14.8 °C 10 °C 1008.4 hPa OSO 3.4 km/h 8 km/h 73% 0.0 mm
19:19 14.8 °C 10 °C 1008.4 hPa Sur 3.9 km/h 11.1 km/h 73% 0.0 mm
19:24 14.8 °C 10.1 °C 1008.7 hPa SSE 4.8 km/h 11.3 km/h 73.6% 0.0 mm
19:29 14.6 °C 10.1 °C 1008.7 hPa SSE 5.8 km/h 13 km/h 74.5% 0.0 mm
19:34 14.4 °C 10.1 °C 1008.7 hPa SSE 6.6 km/h 12.9 km/h 75.5% 0.0 mm
19:39 14.3 °C 10.1 °C 1009.0 hPa SSE 7.6 km/h 13 km/h 76% 0.0 mm
19:44 14.2 °C 10 °C 1009.0 hPa Sur 7.6 km/h 12.9 km/h 76% 0.0 mm
19:49 14.2 °C 10 °C 1009.0 hPa Sur 7.6 km/h 13 km/h 76% 0.0 mm
19:54 14.3 °C 10 °C 1009.3 hPa SSO 8.1 km/h 15.6 km/h 75.5% 0.0 mm
19:59 14.3 °C 10 °C 1009.3 hPa SSO 8.7 km/h 16.1 km/h 75% 0.0 mm
20:04 14.4 °C 9.9 °C 1009.3 hPa SSO 8.5 km/h 13 km/h 74.4% 0.0 mm
20:09 14.6 °C 10 °C 1009.5 hPa SSO 8.4 km/h 13 km/h 74% 0.0 mm
20:14 14.6 °C 10 °C 1009.5 hPa SO 7.9 km/h 13 km/h 74% 0.0 mm
20:19 14.6 °C 10 °C 1009.5 hPa SSO 7.6 km/h 11.9 km/h 74% 0.0 mm
20:24 14.6 °C 10 °C 1009.7 hPa SSO 7 km/h 11.3 km/h 74% 0.0 mm
20:29 14.6 °C 10 °C 1009.7 hPa SSO 6.5 km/h 15.6 km/h 74% 0.0 mm
20:34 14.5 °C 10 °C 1009.7 hPa SSO 7 km/h 16.1 km/h 74% 0.0 mm
20:39 14.4 °C 10 °C 1010.0 hPa SSO 7.6 km/h 14.8 km/h 74.8% 0.0 mm
20:44 14.4 °C 10 °C 1010.0 hPa SSO 8 km/h 14.5 km/h 75% 0.0 mm
20:49 14.4 °C 10 °C 1010.0 hPa SSO 8.4 km/h 14.8 km/h 75% 0.0 mm
20:54 14.4 °C 9.9 °C 1010.2 hPa Sur 8 km/h 14.5 km/h 74.5% 0.0 mm
20:59 14.4 °C 9.8 °C 1010.2 hPa Sur 7.6 km/h 14.8 km/h 74% 0.0 mm
21:04 14.3 °C 9.8 °C 1010.2 hPa Sur 8.2 km/h 14.5 km/h 74% 0.0 mm
21:09 14.3 °C 9.8 °C 1010.4 hPa SSO 8.7 km/h 14.5 km/h 74.4% 0.0 mm
21:14 14.3 °C 9.9 °C 1010.4 hPa Sur 9.1 km/h 14.8 km/h 75% 0.0 mm
21:19 14.2 °C 9.9 °C 1010.4 hPa Sur 9.5 km/h 15.6 km/h 75% 0.0 mm
21:24 14.2 °C 9.6 °C 1010.7 hPa SSO 9.7 km/h 16.1 km/h 74.1% 0.0 mm
21:29 14.2 °C 9.5 °C 1010.7 hPa SSO 10 km/h 16.1 km/h 73.4% 0.0 mm
21:34 14.3 °C 9.5 °C 1010.7 hPa SO 9.2 km/h 13.7 km/h 72.9% 0.0 mm
21:39 14.3 °C 9.3 °C 1010.9 hPa SSO 8.4 km/h 14.5 km/h 72% 0.0 mm
21:44 14.3 °C 9.3 °C 1010.9 hPa SSO 8 km/h 11.9 km/h 72% 0.0 mm
21:49 14.3 °C 9.2 °C 1010.9 hPa SSO 7.6 km/h 16.1 km/h 71.3% 0.0 mm
21:54 14.3 °C 9 °C 1011.2 hPa SSO 8 km/h 16.7 km/h 70.3% 0.0 mm
21:59 14.4 °C 9 °C 1011.2 hPa SO 8.4 km/h 16.1 km/h 70% 0.0 mm
22:04 14.4 °C 8.8 °C 1011.2 hPa SSO 8.4 km/h 12.9 km/h 69.2% 0.0 mm
22:09 14.4 °C 8.7 °C 1011.5 hPa SO 8.4 km/h 13 km/h 68.6% 0.0 mm
22:14 14.5 °C 8.6 °C 1011.5 hPa SSO 7.6 km/h 12.9 km/h 67.8% 0.0 mm
22:19 14.6 °C 8.5 °C 1011.5 hPa SSO 6.9 km/h 14 km/h 67% 0.0 mm
22:24 14.7 °C 8.4 °C 1011.6 hPa SSO 7.6 km/h 14.8 km/h 66.2% 0.0 mm
22:29 14.6 °C 8.4 °C 1011.6 hPa Sur 8.4 km/h 14.5 km/h 66% 0.0 mm
22:34 14.7 °C 8.4 °C 1011.6 hPa SSO 8.4 km/h 12.9 km/h 66% 0.0 mm
22:39 14.7 °C 8.4 °C 1011.8 hPa SSO 8.4 km/h 11.3 km/h 66% 0.0 mm
22:44 14.6 °C 8.3 °C 1011.8 hPa SSO 8 km/h 14.8 km/h 66% 0.0 mm
22:49 14.6 °C 8.3 °C 1011.8 hPa SSO 7.6 km/h 14.5 km/h 66% 0.0 mm
22:54 14.6 °C 8.1 °C 1012.1 hPa SSO 8.6 km/h 14.8 km/h 65.1% 0.0 mm
22:59 14.7 °C 8.1 °C 1012.1 hPa SO 9.5 km/h 14.5 km/h 65% 0.0 mm
23:04 14.6 °C 8.1 °C 1012.1 hPa SO 8.4 km/h 11.3 km/h 65% 0.0 mm
23:09 14.6 °C 8.1 °C 1012.3 hPa SO 7.6 km/h 11.3 km/h 65% 0.0 mm
23:14 14.6 °C 7.9 °C 1012.3 hPa OSO 7.2 km/h 13 km/h 64.1% 0.0 mm
23:19 14.6 °C 7.7 °C 1012.3 hPa OSO 6.9 km/h 16.4 km/h 63.3% 0.0 mm
23:24 14.7 °C 7.6 °C 1012.5 hPa OSO 7.8 km/h 16.7 km/h 62.4% 0.0 mm
23:29 14.7 °C 7.5 °C 1012.5 hPa OSO 8.7 km/h 16.1 km/h 62% 0.0 mm
23:34 14.7 °C 7.4 °C 1012.5 hPa OSO 8.1 km/h 14.5 km/h 61.5% 0.0 mm
23:39 14.7 °C 7.3 °C 1012.6 hPa OSO 7.6 km/h 18.5 km/h 61% 0.0 mm
23:44 14.8 °C 7.3 °C 1012.6 hPa OSO 8.1 km/h 22 km/h 60.8% 0.0 mm
23:49 14.8 °C 7.1 °C 1012.6 hPa OSO 8.7 km/h 22.5 km/h 60% 0.0 mm
23:54 14.8 °C 7.1 °C 1012.6 hPa Oeste 9.5 km/h 22.5 km/h 60% 0.0 mm
23:59 14.8 °C 7.1 °C 1012.6 hPa OSO 10.3 km/h 23.3 km/h 59.9% 0.0 mm
Murcia-Puente Tocinos, Espa?a
Compliments of Weather Underground - 3 mb

La estación de MeteoMurcia.com, publica sus datos en los siguientes proyectos:

Weather Underground PWS IMURCIAP2 Meteoclimatic www.awekas.at

W3Counter
Web Analytics